Terminal Aerodrome Forecast
Issued by NWS Louisville, KY

Home | Current Version | Previous Version | Text Only | Print | Product List | Glossary On
Versions: 1 2 3 4 5 6 7 8 9 10 11 12 13 14 15 16 17 18 19 20
000
FTUS43 KLMK 252300 AAA
TAFLEX
TAF AMD
KLEX 252311Z 2523/2618 VRB05KT 6SM -SHRA BR SCT025 BKN040
      TEMPO 2601/2604 4SM -SHRA BR SCT009 BKN025
     FM260400 VRB06KT 4SM -SHRA BR BKN008
     FM260800 33013G20KT 3SM -SN BKN008
     FM261300 33010G17KT 6SM BR BKN008
     FM261700 31010KT P6SM BKN012=

USA.gov is the U.S. government's official web portal to all federal, state and local government web resources and services.